Wallace, Canada
Current Conditions -  °F | °C
As of 12:00 AM on Thursday 23 Oct 2014 (Local Time) from CYYG Reporting Station
Overcast Overcast  
Wind Chill: 43°   Ceiling: 5000
Heat Index: 48°   Visibility: 15mi
Dew Point: 43°   Wind: 12mph
Humidity: 82%   Direction: 50°NE
Pressure: 30.31"   Gusts: 17mph
Location:  45.8°N, 63.47°W
Report Text: CYYG 230300Z 05010G15KT 15SM BKN050 OVC085 09/06 A3031 RMK SC6AC2 SLP265
Loading
Personal Weather Stations






























Interactive Weather Map
Tropical Storm Tracking
New forecast layout! Learn more

10-Day Weather Forecast

Advertisements
Track Severe Weather on mobile